Virtuous Striker — C6XX6 — position and weather

sailwx.info

Track history (hours):
 
Tides and Currents Weather Stations Pressure Air Temp Water Temp Dewpoint Dewpoint Depression Visibility Wind Speed Wind Dir Waves Ship Positions

Virtuous Striker

Last reported at 2015-Mar-20 12:22 UTC. Time now 2015-Mar-26 19:10 UTC.
Position N 35°58' W 005°37'.

Length 190 m; draft 11.8 m.

Type: Cargo ship. MMSI: 311025100.

Date/timePositionNaut miles runAvg speedWind from/ knotsBaromVisibWave heightAir tempDewpointWater temp
2015-Mar-20 12:22N 35°58' W 005°37'911.4
2015-Mar-20 11:33N 36°01' W 005°26'8 7.9
2015-Mar-20 10:33N 36°08' W 005°23'1 0.8
2015-Mar-20 09:31N 36°08' W 005°22'0 0.0
2015-Mar-20 08:31N 36°08' W 005°22'0 0.0
2015-Mar-20 07:31N 36°08' W 005°22'0 0.0
2015-Mar-20 06:28N 36°08' W 005°22'0 0.0
2015-Mar-20 05:31N 36°08' W 005°22'0 0.1
2015-Mar-20 04:28N 36°08' W 005°22'0 0.0
2015-Mar-20 03:31N 36°08' W 005°22'0 0.1
2015-Mar-20 02:31N 36°08' W 005°22'0 0.0
2015-Mar-20 01:31N 36°08' W 005°22'3 3.2
2015-Mar-20 00:33N 36°05' W 005°20'10 9.6
2015-Mar-19 23:33N 36°07' W 005°08'1 0.7
2015-Mar-19 22:33N 36°07' W 005°09'0 0.1
2015-Mar-19 21:30N 36°07' W 005°09'1 1.2
2015-Mar-19 20:30N 36°08' W 005°08'1 0.6
2015-Mar-19 19:33N 36°08' W 005°08'36112.4
2015-Mar-18 14:28N 36°57' E 002°17'1111.8
2015-Mar-18 13:32N 36°59' E 002°31'1212.5
2015-Mar-18 12:33N 37°01' E 002°46'6011.9
2015-Mar-18 07:32N 37°09' E 004°00'45712.3
2015-Mar-16 18:29N 36°49' E 013°31'1112.3
2015-Mar-16 17:33N 36°45' E 013°45'1211.9
2015-Mar-16 16:32N 36°40' E 013°59'1212.1
2015-Mar-16 15:33N 36°36' E 014°12'1612.6
2015-Mar-16 14:18N 36°30' E 014°31'46111.8
2015-Mar-14 23:19N 37°27' E 024°04'  
Track history (hours):
 
Tides and Currents Weather Stations Pressure Air Temp Water Temp Dewpoint Dewpoint Depression Visibility Wind Speed Wind Dir Waves Ship Positions

Virtuous Striker

Last reported at 2015-Mar-20 12:22 UTC. Time now 2015-Mar-26 19:10 UTC.
Position N 35°58' W 005°37'.

Length 190 m; draft 11.8 m.

Type: Cargo ship. MMSI: 311025100.

Date/timePositionNaut miles runAvg speedWind from/ knotsBaromVisibWave heightAir tempDewpointWater temp
2015-Mar-20 12:22N 35°58' W 005°37'911.4
2015-Mar-20 11:33N 36°01' W 005°26'8 7.9
2015-Mar-20 10:33N 36°08' W 005°23'1 0.8
2015-Mar-20 09:31N 36°08' W 005°22'0 0.0
2015-Mar-20 08:31N 36°08' W 005°22'0 0.0
2015-Mar-20 07:31N 36°08' W 005°22'0 0.0
2015-Mar-20 06:28N 36°08' W 005°22'0 0.0
2015-Mar-20 05:31N 36°08' W 005°22'0 0.1
2015-Mar-20 04:28N 36°08' W 005°22'0 0.0
2015-Mar-20 03:31N 36°08' W 005°22'0 0.1
2015-Mar-20 02:31N 36°08' W 005°22'0 0.0
2015-Mar-20 01:31N 36°08' W 005°22'3 3.2
2015-Mar-20 00:33N 36°05' W 005°20'10 9.6
2015-Mar-19 23:33N 36°07' W 005°08'1 0.7
2015-Mar-19 22:33N 36°07' W 005°09'0 0.1
2015-Mar-19 21:30N 36°07' W 005°09'1 1.2
2015-Mar-19 20:30N 36°08' W 005°08'1 0.6
2015-Mar-19 19:33N 36°08' W 005°08'36112.4
2015-Mar-18 14:28N 36°57' E 002°17'1111.8
2015-Mar-18 13:32N 36°59' E 002°31'1212.5
2015-Mar-18 12:33N 37°01' E 002°46'6011.9
2015-Mar-18 07:32N 37°09' E 004°00'45712.3
2015-Mar-16 18:29N 36°49' E 013°31'1112.3
2015-Mar-16 17:33N 36°45' E 013°45'1211.9
2015-Mar-16 16:32N 36°40' E 013°59'1212.1
2015-Mar-16 15:33N 36°36' E 014°12'1612.6
2015-Mar-16 14:18N 36°30' E 014°31'46111.8
2015-Mar-14 23:19N 37°27' E 024°04'  

Dump ship's entire track history